Pondicherry, India
Current Conditions -  °F | °C
As of 4:40 PM on Wednesday 22 Oct 2014 (Local Time) from VOMM Reporting Station
Scattered Clouds Scattered Clouds  
Wind Chill: 84°   Ceiling: Unl
Heat Index: 92°   Visibility: 4mi
Dew Point: 75°   Wind: 12mph
Humidity: 74%   Direction: 50°NE
Pressure: 29.83"   Gusts: NA
Location:  11.93°N, 79.88°E
Report Text: VOMM 221140Z 05010KT 7000 SCT020 FEW025TCU 29/24 Q1010 NOSIG
Loading
Personal Weather Stations






























Interactive Weather Map
Tropical Storm Tracking
New forecast layout! Learn more

10-Day Weather Forecast

Advertisements
Track Severe Weather on mobile